Portada
METAR-TAF:

METAR-TAF

Aeroports :

Greenwood, Mississipí, Estats Units d'Amèrica

latitud: 33-29-33N, longitud: 090-05-01W, altitud: 47 m

Observació

L'informe es va fer fa 57 minuts, a les 05:53 UTC
Vent calma
Temperatura 24°C
Humitat 89%
Pressió 1019 hPa
Visibilitat: 16.1 km
Cel clar

METAR: KGWO 220553Z AUTO 00000KT 10SM CLR 24/22 A3009 RMK AO2 SLP186 T02440222 10317 20239 403610222 50000

Hora: 01:50 (06:50 UTC)

Pronòstic

L'informe es va fer fa 1 hora i 30 minuts, a les 05:20 UTC
Pronòstic vàlid del 22 a les 06 UTC al 23 a les 06 UTC
Vent kt del Nord
Visibilitat: 10 km
Cel clar
A partir de les 22 a les 1500 UTC
Vent 5 kt del Sud/Sud-Oest
Visibilitat: 10 km
Núvols disperses a una alçada de 6000 ft

TAF: KGWO 220520Z 2206/2306 00000KT P6SM SKC FM221500 20005KT P6SM SCT060

Observacions i pronòstics meteorològics de més de 4000 aeroports (METAR i TAF).

Les estacions disponibles són els punts grocs i vermells al mapa.

Posi el ratolí al punt desitjat per veure el nom de l'estació.

Feu clic per veure les observacions i els pronòstics meteorològics.

Per canviar el mapa: feu clic els botons verds amb una creu de color negre per apropar; al botó verd amb un guió per allunyar la imatge; o en les fletxes verdes per a mapes adjacents.


METAR-TAF: